sensor_id;sensor_type;location;lat;lon;timestamp;P1;durP1;ratioP1;P2;durP2;ratioP2
8478;SDS011;4276;49.354;6.804;2023-09-07T00:02:09;4.90;;;4.30;;
8478;SDS011;4276;49.354;6.804;2023-09-07T00:04:37;4.63;;;4.22;;
8478;SDS011;4276;49.354;6.804;2023-09-07T00:07:03;6.70;;;4.07;;
8478;SDS011;4276;49.354;6.804;2023-09-07T00:09:30;4.80;;;4.43;;
8478;SDS011;4276;49.354;6.804;2023-09-07T00:11:56;5.85;;;4.35;;
8478;SDS011;4276;49.354;6.804;2023-09-07T00:14:24;4.50;;;4.18;;
8478;SDS011;4276;49.354;6.804;2023-09-07T00:16:50;4.50;;;4.15;;
8478;SDS011;4276;49.354;6.804;2023-09-07T00:19:19;4.07;;;3.78;;
8478;SDS011;4276;49.354;6.804;2023-09-07T00:21:46;4.20;;;3.90;;
8478;SDS011;4276;49.354;6.804;2023-09-07T00:24:12;3.90;;;3.60;;
8478;SDS011;4276;49.354;6.804;2023-09-07T00:26:39;4.30;;;4.00;;
8478;SDS011;4276;49.354;6.804;2023-09-07T00:29:05;4.10;;;3.80;;
8478;SDS011;4276;49.354;6.804;2023-09-07T00:31:32;4.80;;;4.40;;
8478;SDS011;4276;49.354;6.804;2023-09-07T00:33:59;4.28;;;3.95;;
8478;SDS011;4276;49.354;6.804;2023-09-07T00:36:26;4.80;;;4.30;;
8478;SDS011;4276;49.354;6.804;2023-09-07T00:38:52;4.28;;;3.97;;
8478;SDS011;4276;49.354;6.804;2023-09-07T00:41:19;4.30;;;4.00;;
8478;SDS011;4276;49.354;6.804;2023-09-07T00:43:45;4.78;;;4.40;;
8478;SDS011;4276;49.354;6.804;2023-09-07T00:46:12;5.22;;;4.72;;
8478;SDS011;4276;49.354;6.804;2023-09-07T00:48:39;4.60;;;4.20;;
8478;SDS011;4276;49.354;6.804;2023-09-07T00:51:05;4.30;;;4.00;;
8478;SDS011;4276;49.354;6.804;2023-09-07T00:53:33;4.82;;;4.43;;
8478;SDS011;4276;49.354;6.804;2023-09-07T00:55:59;4.13;;;3.70;;
8478;SDS011;4276;49.354;6.804;2023-09-07T00:58:26;4.93;;;4.40;;
8478;SDS011;4276;49.354;6.804;2023-09-07T01:00:53;5.40;;;4.13;;
8478;SDS011;4276;49.354;6.804;2023-09-07T01:03:20;4.00;;;3.70;;
8478;SDS011;4276;49.354;6.804;2023-09-07T01:05:56;5.03;;;4.28;;
8478;SDS011;4276;49.354;6.804;2023-09-07T01:08:39;4.85;;;4.55;;
8478;SDS011;4276;49.354;6.804;2023-09-07T01:11:12;4.75;;;4.03;;
8478;SDS011;4276;49.354;6.804;2023-09-07T01:13:42;4.65;;;4.18;;
8478;SDS011;4276;49.354;6.804;2023-09-07T01:16:09;4.65;;;4.05;;
8478;SDS011;4276;49.354;6.804;2023-09-07T01:18:37;4.60;;;4.20;;
8478;SDS011;4276;49.354;6.804;2023-09-07T01:21:05;5.15;;;4.57;;
8478;SDS011;4276;49.354;6.804;2023-09-07T01:23:37;6.43;;;4.22;;
8478;SDS011;4276;49.354;6.804;2023-09-07T01:26:05;4.70;;;4.30;;
8478;SDS011;4276;49.354;6.804;2023-09-07T01:28:36;4.13;;;3.83;;
8478;SDS011;4276;49.354;6.804;2023-09-07T01:31:04;4.35;;;4.03;;
8478;SDS011;4276;49.354;6.804;2023-09-07T01:33:32;4.03;;;3.67;;
8478;SDS011;4276;49.354;6.804;2023-09-07T01:35:58;4.18;;;3.88;;
8478;SDS011;4276;49.354;6.804;2023-09-07T01:38:25;4.72;;;4.25;;
8478;SDS011;4276;49.354;6.804;2023-09-07T01:40:51;4.47;;;4.18;;
8478;SDS011;4276;49.354;6.804;2023-09-07T01:43:19;4.20;;;3.75;;
8478;SDS011;4276;49.354;6.804;2023-09-07T01:45:46;4.10;;;3.80;;
8478;SDS011;4276;49.354;6.804;2023-09-07T01:48:13;3.92;;;3.63;;
8478;SDS011;4276;49.354;6.804;2023-09-07T01:50:40;4.95;;;4.45;;
8478;SDS011;4276;49.354;6.804;2023-09-07T01:53:07;4.68;;;4.32;;
8478;SDS011;4276;49.354;6.804;2023-09-07T01:55:33;4.50;;;4.20;;
8478;SDS011;4276;49.354;6.804;2023-09-07T01:58:00;3.97;;;3.67;;
8478;SDS011;4276;49.354;6.804;2023-09-07T02:00:27;4.05;;;3.47;;
8478;SDS011;4276;49.354;6.804;2023-09-07T02:02:53;3.88;;;3.45;;
8478;SDS011;4276;49.354;6.804;2023-09-07T02:05:20;4.20;;;3.90;;
8478;SDS011;4276;49.354;6.804;2023-09-07T02:07:49;4.40;;;3.92;;
8478;SDS011;4276;49.354;6.804;2023-09-07T02:10:16;4.80;;;4.50;;
8478;SDS011;4276;49.354;6.804;2023-09-07T02:12:46;4.10;;;3.80;;
8478;SDS011;4276;49.354;6.804;2023-09-07T02:15:12;4.03;;;3.72;;
8478;SDS011;4276;49.354;6.804;2023-09-07T02:17:39;4.00;;;3.70;;
8478;SDS011;4276;49.354;6.804;2023-09-07T02:20:06;4.45;;;4.13;;
8478;SDS011;4276;49.354;6.804;2023-09-07T02:22:37;3.75;;;3.47;;
8478;SDS011;4276;49.354;6.804;2023-09-07T02:25:04;4.15;;;3.75;;
8478;SDS011;4276;49.354;6.804;2023-09-07T02:27:32;4.50;;;4.10;;
8478;SDS011;4276;49.354;6.804;2023-09-07T02:29:59;4.85;;;4.20;;
8478;SDS011;4276;49.354;6.804;2023-09-07T02:32:25;4.38;;;3.97;;
8478;SDS011;4276;49.354;6.804;2023-09-07T02:34:52;4.38;;;3.97;;
8478;SDS011;4276;49.354;6.804;2023-09-07T02:37:19;4.82;;;4.00;;
8478;SDS011;4276;49.354;6.804;2023-09-07T02:39:46;3.97;;;3.70;;
8478;SDS011;4276;49.354;6.804;2023-09-07T02:42:12;4.10;;;3.80;;
8478;SDS011;4276;49.354;6.804;2023-09-07T02:44:39;4.10;;;3.70;;
8478;SDS011;4276;49.354;6.804;2023-09-07T02:47:05;4.53;;;4.22;;
8478;SDS011;4276;49.354;6.804;2023-09-07T02:49:38;4.45;;;4.15;;
8478;SDS011;4276;49.354;6.804;2023-09-07T02:52:05;4.00;;;3.70;;
8478;SDS011;4276;49.354;6.804;2023-09-07T02:54:35;4.45;;;4.15;;
8478;SDS011;4276;49.354;6.804;2023-09-07T02:57:01;4.72;;;4.30;;
8478;SDS011;4276;49.354;6.804;2023-09-07T02:59:28;4.65;;;3.80;;
8478;SDS011;4276;49.354;6.804;2023-09-07T03:01:55;4.45;;;4.07;;
8478;SDS011;4276;49.354;6.804;2023-09-07T03:04:21;4.60;;;4.20;;
8478;SDS011;4276;49.354;6.804;2023-09-07T03:06:48;4.45;;;4.05;;
8478;SDS011;4276;49.354;6.804;2023-09-07T03:09:14;4.68;;;4.22;;
8478;SDS011;4276;49.354;6.804;2023-09-07T03:11:41;4.25;;;3.95;;
8478;SDS011;4276;49.354;6.804;2023-09-07T03:14:07;4.50;;;4.10;;
8478;SDS011;4276;49.354;6.804;2023-09-07T03:16:34;4.20;;;3.90;;
8478;SDS011;4276;49.354;6.804;2023-09-07T03:19:01;4.68;;;4.28;;
8478;SDS011;4276;49.354;6.804;2023-09-07T03:21:28;4.15;;;3.85;;
8478;SDS011;4276;49.354;6.804;2023-09-07T03:23:56;4.68;;;4.32;;
8478;SDS011;4276;49.354;6.804;2023-09-07T03:26:24;4.25;;;3.95;;
8478;SDS011;4276;49.354;6.804;2023-09-07T03:28:50;4.32;;;4.03;;
8478;SDS011;4276;49.354;6.804;2023-09-07T03:31:18;4.80;;;4.30;;
8478;SDS011;4276;49.354;6.804;2023-09-07T03:33:45;4.40;;;4.00;;
8478;SDS011;4276;49.354;6.804;2023-09-07T03:36:12;4.38;;;4.07;;
8478;SDS011;4276;49.354;6.804;2023-09-07T03:38:41;4.43;;;3.95;;
8478;SDS011;4276;49.354;6.804;2023-09-07T03:41:09;4.50;;;4.20;;
8478;SDS011;4276;49.354;6.804;2023-09-07T03:43:36;4.30;;;3.92;;
8478;SDS011;4276;49.354;6.804;2023-09-07T03:46:06;4.63;;;4.25;;
8478;SDS011;4276;49.354;6.804;2023-09-07T03:48:32;4.93;;;4.47;;
8478;SDS011;4276;49.354;6.804;2023-09-07T03:51:00;4.75;;;4.35;;
8478;SDS011;4276;49.354;6.804;2023-09-07T03:53:30;4.28;;;4.00;;
8478;SDS011;4276;49.354;6.804;2023-09-07T03:55:56;4.72;;;4.32;;
8478;SDS011;4276;49.354;6.804;2023-09-07T03:58:23;4.90;;;4.57;;
8478;SDS011;4276;49.354;6.804;2023-09-07T04:00:49;4.25;;;3.95;;
8478;SDS011;4276;49.354;6.804;2023-09-07T04:03:16;4.45;;;4.05;;
8478;SDS011;4276;49.354;6.804;2023-09-07T04:05:43;4.82;;;4.07;;
8478;SDS011;4276;49.354;6.804;2023-09-07T04:08:14;4.18;;;3.88;;
8478;SDS011;4276;49.354;6.804;2023-09-07T04:10:40;4.35;;;3.95;;
8478;SDS011;4276;49.354;6.804;2023-09-07T04:13:07;4.43;;;3.60;;
8478;SDS011;4276;49.354;6.804;2023-09-07T04:15:34;4.60;;;4.20;;
8478;SDS011;4276;49.354;6.804;2023-09-07T04:18:01;4.47;;;4.03;;
8478;SDS011;4276;49.354;6.804;2023-09-07T04:20:30;4.45;;;4.05;;
8478;SDS011;4276;49.354;6.804;2023-09-07T04:22:56;4.30;;;3.97;;
8478;SDS011;4276;49.354;6.804;2023-09-07T04:25:23;4.35;;;3.95;;
8478;SDS011;4276;49.354;6.804;2023-09-07T04:27:50;4.53;;;4.13;;
8478;SDS011;4276;49.354;6.804;2023-09-07T04:30:16;4.47;;;4.07;;
8478;SDS011;4276;49.354;6.804;2023-09-07T04:32:43;4.70;;;4.13;;
8478;SDS011;4276;49.354;6.804;2023-09-07T04:35:10;4.18;;;3.88;;
8478;SDS011;4276;49.354;6.804;2023-09-07T04:37:37;4.40;;;4.10;;
8478;SDS011;4276;49.354;6.804;2023-09-07T04:40:05;4.05;;;3.75;;
8478;SDS011;4276;49.354;6.804;2023-09-07T04:42:32;4.18;;;3.88;;
8478;SDS011;4276;49.354;6.804;2023-09-07T04:44:59;4.40;;;3.97;;
8478;SDS011;4276;49.354;6.804;2023-09-07T04:47:25;4.63;;;4.25;;
8478;SDS011;4276;49.354;6.804;2023-09-07T04:49:52;4.45;;;4.00;;
8478;SDS011;4276;49.354;6.804;2023-09-07T04:52:18;4.15;;;3.85;;
8478;SDS011;4276;49.354;6.804;2023-09-07T04:54:45;4.63;;;4.28;;
8478;SDS011;4276;49.354;6.804;2023-09-07T04:57:13;4.32;;;3.90;;
8478;SDS011;4276;49.354;6.804;2023-09-07T04:59:41;4.00;;;3.70;;
8478;SDS011;4276;49.354;6.804;2023-09-07T05:02:08;4.53;;;4.10;;
8478;SDS011;4276;49.354;6.804;2023-09-07T05:04:34;4.85;;;4.20;;
8478;SDS011;4276;49.354;6.804;2023-09-07T05:07:01;4.35;;;4.00;;
8478;SDS011;4276;49.354;6.804;2023-09-07T05:09:31;4.28;;;3.90;;
8478;SDS011;4276;49.354;6.804;2023-09-07T05:12:01;4.38;;;4.07;;
8478;SDS011;4276;49.354;6.804;2023-09-07T05:14:28;4.45;;;4.10;;
8478;SDS011;4276;49.354;6.804;2023-09-07T05:16:55;4.97;;;4.50;;
8478;SDS011;4276;49.354;6.804;2023-09-07T05:19:22;4.43;;;4.10;;
8478;SDS011;4276;49.354;6.804;2023-09-07T05:21:49;5.15;;;4.75;;
8478;SDS011;4276;49.354;6.804;2023-09-07T05:24:16;4.25;;;3.95;;
8478;SDS011;4276;49.354;6.804;2023-09-07T05:26:42;4.68;;;4.22;;
8478;SDS011;4276;49.354;6.804;2023-09-07T05:29:10;4.43;;;4.13;;
8478;SDS011;4276;49.354;6.804;2023-09-07T05:31:37;4.63;;;4.20;;
8478;SDS011;4276;49.354;6.804;2023-09-07T05:34:04;4.45;;;4.15;;
8478;SDS011;4276;49.354;6.804;2023-09-07T05:36:31;8.43;;;4.63;;
8478;SDS011;4276;49.354;6.804;2023-09-07T05:38:57;4.60;;;4.22;;
8478;SDS011;4276;49.354;6.804;2023-09-07T05:41:24;4.78;;;4.40;;
8478;SDS011;4276;49.354;6.804;2023-09-07T05:43:50;5.15;;;4.75;;
8478;SDS011;4276;49.354;6.804;2023-09-07T05:46:19;4.60;;;4.20;;
8478;SDS011;4276;49.354;6.804;2023-09-07T05:48:46;5.22;;;4.72;;
8478;SDS011;4276;49.354;6.804;2023-09-07T05:51:13;5.35;;;4.90;;
8478;SDS011;4276;49.354;6.804;2023-09-07T05:53:40;5.15;;;4.75;;
8478;SDS011;4276;49.354;6.804;2023-09-07T05:56:06;5.47;;;5.05;;
8478;SDS011;4276;49.354;6.804;2023-09-07T05:58:33;5.50;;;5.00;;
8478;SDS011;4276;49.354;6.804;2023-09-07T06:01:00;6.30;;;5.53;;
8478;SDS011;4276;49.354;6.804;2023-09-07T06:03:27;5.10;;;4.70;;
8478;SDS011;4276;49.354;6.804;2023-09-07T06:05:54;5.90;;;5.38;;
8478;SDS011;4276;49.354;6.804;2023-09-07T06:08:20;5.05;;;4.65;;
8478;SDS011;4276;49.354;6.804;2023-09-07T06:10:47;5.28;;;4.75;;
8478;SDS011;4276;49.354;6.804;2023-09-07T06:13:13;5.10;;;4.70;;
8478;SDS011;4276;49.354;6.804;2023-09-07T06:15:42;5.22;;;4.78;;
8478;SDS011;4276;49.354;6.804;2023-09-07T06:18:09;5.05;;;4.65;;
8478;SDS011;4276;49.354;6.804;2023-09-07T06:20:35;5.63;;;5.15;;
8478;SDS011;4276;49.354;6.804;2023-09-07T06:23:02;4.80;;;4.40;;
8478;SDS011;4276;49.354;6.804;2023-09-07T06:25:29;5.13;;;4.63;;
8478;SDS011;4276;49.354;6.804;2023-09-07T06:27:55;4.95;;;4.55;;
8478;SDS011;4276;49.354;6.804;2023-09-07T06:30:22;4.85;;;4.45;;
8478;SDS011;4276;49.354;6.804;2023-09-07T06:32:49;5.25;;;4.85;;
8478;SDS011;4276;49.354;6.804;2023-09-07T06:35:17;5.72;;;5.32;;
8478;SDS011;4276;49.354;6.804;2023-09-07T06:37:45;5.68;;;4.85;;
8478;SDS011;4276;49.354;6.804;2023-09-07T06:40:11;7.97;;;5.15;;
8478;SDS011;4276;49.354;6.804;2023-09-07T06:42:39;5.95;;;4.93;;
8478;SDS011;4276;49.354;6.804;2023-09-07T06:45:06;4.85;;;4.50;;
8478;SDS011;4276;49.354;6.804;2023-09-07T06:47:33;4.45;;;4.13;;
8478;SDS011;4276;49.354;6.804;2023-09-07T06:50:01;4.22;;;3.92;;
8478;SDS011;4276;49.354;6.804;2023-09-07T06:52:28;4.05;;;3.70;;
8478;SDS011;4276;49.354;6.804;2023-09-07T06:54:54;3.97;;;3.67;;
8478;SDS011;4276;49.354;6.804;2023-09-07T06:57:21;3.97;;;3.67;;
8478;SDS011;4276;49.354;6.804;2023-09-07T06:59:48;5.00;;;3.95;;
8478;SDS011;4276;49.354;6.804;2023-09-07T07:02:15;3.97;;;3.67;;
8478;SDS011;4276;49.354;6.804;2023-09-07T07:04:41;3.97;;;3.67;;
8478;SDS011;4276;49.354;6.804;2023-09-07T07:07:13;4.00;;;3.70;;
8478;SDS011;4276;49.354;6.804;2023-09-07T07:09:39;4.28;;;3.97;;
8478;SDS011;4276;49.354;6.804;2023-09-07T07:12:06;3.65;;;3.35;;
8478;SDS011;4276;49.354;6.804;2023-09-07T07:14:33;3.90;;;3.60;;
8478;SDS011;4276;49.354;6.804;2023-09-07T07:16:59;4.15;;;3.85;;
8478;SDS011;4276;49.354;6.804;2023-09-07T07:19:28;3.80;;;3.50;;
8478;SDS011;4276;49.354;6.804;2023-09-07T07:21:58;4.22;;;3.50;;
8478;SDS011;4276;49.354;6.804;2023-09-07T07:24:25;3.75;;;3.42;;
8478;SDS011;4276;49.354;6.804;2023-09-07T07:26:51;4.68;;;4.22;;
8478;SDS011;4276;49.354;6.804;2023-09-07T07:29:18;3.60;;;3.40;;
8478;SDS011;4276;49.354;6.804;2023-09-07T07:31:44;3.80;;;3.50;;
8478;SDS011;4276;49.354;6.804;2023-09-07T07:34:11;3.95;;;3.75;;
8478;SDS011;4276;49.354;6.804;2023-09-07T07:36:38;4.15;;;3.75;;
8478;SDS011;4276;49.354;6.804;2023-09-07T07:39:05;3.78;;;3.47;;
8478;SDS011;4276;49.354;6.804;2023-09-07T07:41:35;4.47;;;3.85;;
8478;SDS011;4276;49.354;6.804;2023-09-07T07:44:04;4.55;;;3.55;;
8478;SDS011;4276;49.354;6.804;2023-09-07T07:46:31;3.80;;;3.50;;
8478;SDS011;4276;49.354;6.804;2023-09-07T07:48:58;3.47;;;3.28;;
8478;SDS011;4276;49.354;6.804;2023-09-07T07:51:25;3.38;;;3.17;;
8478;SDS011;4276;49.354;6.804;2023-09-07T07:53:56;4.38;;;3.97;;
8478;SDS011;4276;49.354;6.804;2023-09-07T07:56:23;3.92;;;3.38;;
8478;SDS011;4276;49.354;6.804;2023-09-07T07:58:50;3.95;;;3.65;;
8478;SDS011;4276;49.354;6.804;2023-09-07T08:01:17;3.90;;;3.50;;
8478;SDS011;4276;49.354;6.804;2023-09-07T08:03:44;3.65;;;3.45;;
8478;SDS011;4276;49.354;6.804;2023-09-07T08:06:11;3.88;;;3.40;;
8478;SDS011;4276;49.354;6.804;2023-09-07T08:08:41;4.28;;;3.70;;
8478;SDS011;4276;49.354;6.804;2023-09-07T08:11:07;4.15;;;3.05;;
8478;SDS011;4276;49.354;6.804;2023-09-07T08:13:35;3.85;;;3.55;;
8478;SDS011;4276;49.354;6.804;2023-09-07T08:16:02;3.92;;;3.63;;
8478;SDS011;4276;49.354;6.804;2023-09-07T08:18:29;3.47;;;3.25;;
8478;SDS011;4276;49.354;6.804;2023-09-07T08:21:01;3.97;;;3.65;;
8478;SDS011;4276;49.354;6.804;2023-09-07T08:23:31;4.35;;;3.38;;
8478;SDS011;4276;49.354;6.804;2023-09-07T08:25:57;3.92;;;3.33;;
8478;SDS011;4276;49.354;6.804;2023-09-07T08:28:25;3.55;;;3.22;;
8478;SDS011;4276;49.354;6.804;2023-09-07T08:30:55;3.70;;;3.40;;
8478;SDS011;4276;49.354;6.804;2023-09-07T08:33:25;4.22;;;3.33;;
8478;SDS011;4276;49.354;6.804;2023-09-07T08:35:56;3.40;;;3.15;;
8478;SDS011;4276;49.354;6.804;2023-09-07T08:38:23;3.58;;;3.28;;
8478;SDS011;4276;49.354;6.804;2023-09-07T08:40:54;4.28;;;3.95;;
8478;SDS011;4276;49.354;6.804;2023-09-07T08:43:22;3.92;;;3.63;;
8478;SDS011;4276;49.354;6.804;2023-09-07T08:45:50;4.95;;;4.03;;
8478;SDS011;4276;49.354;6.804;2023-09-07T08:48:20;3.90;;;3.40;;
8478;SDS011;4276;49.354;6.804;2023-09-07T08:50:47;3.85;;;3.55;;
8478;SDS011;4276;49.354;6.804;2023-09-07T08:53:19;4.03;;;3.63;;
8478;SDS011;4276;49.354;6.804;2023-09-07T08:55:51;3.58;;;3.28;;
8478;SDS011;4276;49.354;6.804;2023-09-07T08:58:18;3.63;;;3.42;;
8478;SDS011;4276;49.354;6.804;2023-09-07T09:00:44;3.70;;;3.40;;
8478;SDS011;4276;49.354;6.804;2023-09-07T09:03:11;3.65;;;3.38;;
8478;SDS011;4276;49.354;6.804;2023-09-07T09:05:40;3.95;;;3.60;;
8478;SDS011;4276;49.354;6.804;2023-09-07T09:08:07;3.40;;;3.10;;
8478;SDS011;4276;49.354;6.804;2023-09-07T09:10:40;4.47;;;3.50;;
8478;SDS011;4276;49.354;6.804;2023-09-07T09:13:06;3.33;;;3.13;;
8478;SDS011;4276;49.354;6.804;2023-09-07T09:15:33;3.97;;;3.58;;
8478;SDS011;4276;49.354;6.804;2023-09-07T09:18:08;3.92;;;3.58;;
8478;SDS011;4276;49.354;6.804;2023-09-07T09:20:37;3.85;;;3.58;;
8478;SDS011;4276;49.354;6.804;2023-09-07T09:23:03;3.63;;;3.33;;
8478;SDS011;4276;49.354;6.804;2023-09-07T09:25:31;4.00;;;3.50;;
8478;SDS011;4276;49.354;6.804;2023-09-07T09:27:57;3.97;;;3.35;;
8478;SDS011;4276;49.354;6.804;2023-09-07T09:30:25;3.88;;;3.58;;
8478;SDS011;4276;49.354;6.804;2023-09-07T09:32:51;3.50;;;3.20;;
8478;SDS011;4276;49.354;6.804;2023-09-07T09:35:18;4.50;;;3.78;;
8478;SDS011;4276;49.354;6.804;2023-09-07T09:37:46;4.07;;;3.75;;
8478;SDS011;4276;49.354;6.804;2023-09-07T09:40:14;3.83;;;3.40;;
8478;SDS011;4276;49.354;6.804;2023-09-07T09:42:43;3.88;;;3.30;;
8478;SDS011;4276;49.354;6.804;2023-09-07T09:45:10;3.88;;;3.33;;
8478;SDS011;4276;49.354;6.804;2023-09-07T09:47:38;3.70;;;3.40;;
8478;SDS011;4276;49.354;6.804;2023-09-07T09:50:10;3.97;;;3.67;;
8478;SDS011;4276;49.354;6.804;2023-09-07T09:52:37;4.15;;;3.85;;
8478;SDS011;4276;49.354;6.804;2023-09-07T09:55:05;5.80;;;3.83;;
8478;SDS011;4276;49.354;6.804;2023-09-07T09:57:34;4.50;;;4.10;;
8478;SDS011;4276;49.354;6.804;2023-09-07T10:00:04;4.97;;;3.55;;
8478;SDS011;4276;49.354;6.804;2023-09-07T10:02:44;4.00;;;3.65;;
8478;SDS011;4276;49.354;6.804;2023-09-07T10:05:12;3.83;;;3.53;;
8478;SDS011;4276;49.354;6.804;2023-09-07T10:07:44;3.53;;;3.22;;
8478;SDS011;4276;49.354;6.804;2023-09-07T10:10:15;3.90;;;3.60;;
8478;SDS011;4276;49.354;6.804;2023-09-07T10:12:43;4.15;;;3.40;;
8478;SDS011;4276;49.354;6.804;2023-09-07T10:15:22;4.20;;;3.53;;
8478;SDS011;4276;49.354;6.804;2023-09-07T10:17:50;3.72;;;3.42;;
8478;SDS011;4276;49.354;6.804;2023-09-07T10:20:28;3.47;;;3.20;;
8478;SDS011;4276;49.354;6.804;2023-09-07T10:23:05;3.45;;;3.15;;
8478;SDS011;4276;49.354;6.804;2023-09-07T10:25:35;6.38;;;3.85;;
8478;SDS011;4276;49.354;6.804;2023-09-07T10:28:02;3.30;;;3.10;;
8478;SDS011;4276;49.354;6.804;2023-09-07T10:30:30;3.72;;;3.42;;
8478;SDS011;4276;49.354;6.804;2023-09-07T10:33:01;3.90;;;3.60;;
8478;SDS011;4276;49.354;6.804;2023-09-07T10:35:28;3.85;;;3.40;;
8478;SDS011;4276;49.354;6.804;2023-09-07T10:38:01;3.75;;;3.47;;
8478;SDS011;4276;49.354;6.804;2023-09-07T10:40:28;4.60;;;3.67;;
8478;SDS011;4276;49.354;6.804;2023-09-07T10:43:01;3.70;;;3.42;;
8478;SDS011;4276;49.354;6.804;2023-09-07T10:45:30;3.97;;;3.67;;
8478;SDS011;4276;49.354;6.804;2023-09-07T10:47:56;3.53;;;3.20;;
8478;SDS011;4276;49.354;6.804;2023-09-07T10:50:23;3.83;;;3.53;;
8478;SDS011;4276;49.354;6.804;2023-09-07T10:52:49;4.00;;;3.60;;
8478;SDS011;4276;49.354;6.804;2023-09-07T10:55:16;3.30;;;3.03;;
8478;SDS011;4276;49.354;6.804;2023-09-07T10:57:43;4.03;;;3.60;;
8478;SDS011;4276;49.354;6.804;2023-09-07T11:00:11;3.60;;;3.25;;
8478;SDS011;4276;49.354;6.804;2023-09-07T11:02:40;3.58;;;3.28;;
8478;SDS011;4276;49.354;6.804;2023-09-07T11:05:09;3.50;;;3.30;;
8478;SDS011;4276;49.354;6.804;2023-09-07T11:07:36;3.88;;;3.60;;
8478;SDS011;4276;49.354;6.804;2023-09-07T11:10:05;3.63;;;3.33;;
8478;SDS011;4276;49.354;6.804;2023-09-07T11:12:39;3.85;;;3.55;;
8478;SDS011;4276;49.354;6.804;2023-09-07T11:15:10;3.15;;;2.95;;
8478;SDS011;4276;49.354;6.804;2023-09-07T11:17:37;4.03;;;3.60;;
8478;SDS011;4276;49.354;6.804;2023-09-07T11:20:06;3.75;;;3.20;;
8478;SDS011;4276;49.354;6.804;2023-09-07T11:22:34;3.85;;;3.55;;
8478;SDS011;4276;49.354;6.804;2023-09-07T11:25:20;3.90;;;3.42;;
8478;SDS011;4276;49.354;6.804;2023-09-07T11:27:47;4.10;;;3.80;;
8478;SDS011;4276;49.354;6.804;2023-09-07T11:30:13;4.63;;;3.50;;
8478;SDS011;4276;49.354;6.804;2023-09-07T11:32:40;4.35;;;3.80;;
8478;SDS011;4276;49.354;6.804;2023-09-07T11:35:09;3.65;;;3.35;;
8478;SDS011;4276;49.354;6.804;2023-09-07T11:37:36;3.70;;;3.50;;
8478;SDS011;4276;49.354;6.804;2023-09-07T11:40:06;5.68;;;3.80;;
8478;SDS011;4276;49.354;6.804;2023-09-07T11:42:38;3.92;;;3.63;;
8478;SDS011;4276;49.354;6.804;2023-09-07T11:45:06;3.90;;;3.67;;
8478;SDS011;4276;49.354;6.804;2023-09-07T11:47:39;4.05;;;3.72;;
8478;SDS011;4276;49.354;6.804;2023-09-07T11:50:06;3.80;;;3.60;;
8478;SDS011;4276;49.354;6.804;2023-09-07T11:52:35;4.13;;;3.85;;
8478;SDS011;4276;49.354;6.804;2023-09-07T11:55:02;3.65;;;3.45;;
8478;SDS011;4276;49.354;6.804;2023-09-07T11:57:30;4.00;;;3.70;;
8478;SDS011;4276;49.354;6.804;2023-09-07T11:59:56;4.00;;;3.60;;
8478;SDS011;4276;49.354;6.804;2023-09-07T12:02:24;3.72;;;3.42;;
8478;SDS011;4276;49.354;6.804;2023-09-07T12:04:56;4.20;;;3.80;;
8478;SDS011;4276;49.354;6.804;2023-09-07T12:07:23;4.70;;;4.00;;
8478;SDS011;4276;49.354;6.804;2023-09-07T12:09:50;4.22;;;3.80;;
8478;SDS011;4276;49.354;6.804;2023-09-07T12:12:16;3.97;;;3.70;;
8478;SDS011;4276;49.354;6.804;2023-09-07T12:14:43;5.32;;;4.85;;
8478;SDS011;4276;49.354;6.804;2023-09-07T12:17:09;4.45;;;3.95;;
8478;SDS011;4276;49.354;6.804;2023-09-07T12:19:37;3.63;;;3.42;;
8478;SDS011;4276;49.354;6.804;2023-09-07T12:22:03;4.22;;;3.95;;
8478;SDS011;4276;49.354;6.804;2023-09-07T12:24:30;3.80;;;3.53;;
8478;SDS011;4276;49.354;6.804;2023-09-07T12:26:57;3.92;;;3.63;;
8478;SDS011;4276;49.354;6.804;2023-09-07T12:29:23;4.47;;;4.07;;
8478;SDS011;4276;49.354;6.804;2023-09-07T12:31:50;4.40;;;3.63;;
8478;SDS011;4276;49.354;6.804;2023-09-07T12:34:16;4.10;;;3.80;;
8478;SDS011;4276;49.354;6.804;2023-09-07T12:36:43;4.60;;;4.18;;
8478;SDS011;4276;49.354;6.804;2023-09-07T12:39:09;3.67;;;3.47;;
8478;SDS011;4276;49.354;6.804;2023-09-07T12:41:39;3.90;;;3.60;;
8478;SDS011;4276;49.354;6.804;2023-09-07T12:44:06;4.30;;;3.90;;
8478;SDS011;4276;49.354;6.804;2023-09-07T12:46:32;4.13;;;3.72;;
8478;SDS011;4276;49.354;6.804;2023-09-07T12:48:59;4.20;;;3.90;;
8478;SDS011;4276;49.354;6.804;2023-09-07T12:51:26;5.50;;;4.13;;
8478;SDS011;4276;49.354;6.804;2023-09-07T12:53:52;3.95;;;3.60;;
8478;SDS011;4276;49.354;6.804;2023-09-07T12:56:19;4.38;;;3.97;;
8478;SDS011;4276;49.354;6.804;2023-09-07T12:58:45;3.85;;;3.58;;
8478;SDS011;4276;49.354;6.804;2023-09-07T13:01:12;4.13;;;3.80;;
8478;SDS011;4276;49.354;6.804;2023-09-07T13:03:41;4.32;;;3.92;;
8478;SDS011;4276;49.354;6.804;2023-09-07T13:06:08;4.05;;;3.75;;
8478;SDS011;4276;49.354;6.804;2023-09-07T13:08:38;4.18;;;3.88;;
8478;SDS011;4276;49.354;6.804;2023-09-07T13:11:05;4.13;;;3.70;;
8478;SDS011;4276;49.354;6.804;2023-09-07T13:13:31;4.20;;;3.88;;
8478;SDS011;4276;49.354;6.804;2023-09-07T13:15:58;3.83;;;3.53;;
8478;SDS011;4276;49.354;6.804;2023-09-07T13:18:28;5.22;;;3.90;;
8478;SDS011;4276;49.354;6.804;2023-09-07T13:20:54;4.10;;;3.88;;
8478;SDS011;4276;49.354;6.804;2023-09-07T13:23:26;3.70;;;3.50;;
8478;SDS011;4276;49.354;6.804;2023-09-07T13:26:02;5.60;;;4.13;;
8478;SDS011;4276;49.354;6.804;2023-09-07T13:28:28;4.25;;;3.83;;
8478;SDS011;4276;49.354;6.804;2023-09-07T13:30:58;4.35;;;4.05;;
8478;SDS011;4276;49.354;6.804;2023-09-07T13:33:25;4.50;;;4.10;;
8478;SDS011;4276;49.354;6.804;2023-09-07T13:35:52;4.65;;;4.05;;
8478;SDS011;4276;49.354;6.804;2023-09-07T13:38:18;3.90;;;3.60;;
8478;SDS011;4276;49.354;6.804;2023-09-07T13:40:45;5.07;;;3.80;;
8478;SDS011;4276;49.354;6.804;2023-09-07T13:43:11;4.13;;;3.83;;
8478;SDS011;4276;49.354;6.804;2023-09-07T13:45:38;4.28;;;3.97;;
8478;SDS011;4276;49.354;6.804;2023-09-07T13:48:06;4.43;;;3.75;;
8478;SDS011;4276;49.354;6.804;2023-09-07T13:50:33;4.15;;;3.90;;
8478;SDS011;4276;49.354;6.804;2023-09-07T13:53:01;4.18;;;3.88;;
8478;SDS011;4276;49.354;6.804;2023-09-07T13:55:28;4.30;;;3.83;;
8478;SDS011;4276;49.354;6.804;2023-09-07T13:57:56;3.97;;;3.78;;
8478;SDS011;4276;49.354;6.804;2023-09-07T14:00:22;5.00;;;4.50;;
8478;SDS011;4276;49.354;6.804;2023-09-07T14:02:49;3.78;;;3.58;;
8478;SDS011;4276;49.354;6.804;2023-09-07T14:05:16;5.35;;;4.30;;
8478;SDS011;4276;49.354;6.804;2023-09-07T14:07:42;4.45;;;4.05;;
8478;SDS011;4276;49.354;6.804;2023-09-07T14:10:09;3.92;;;3.63;;
8478;SDS011;4276;49.354;6.804;2023-09-07T14:12:35;4.50;;;4.20;;
8478;SDS011;4276;49.354;6.804;2023-09-07T14:15:02;4.15;;;3.85;;
8478;SDS011;4276;49.354;6.804;2023-09-07T14:17:28;5.57;;;3.70;;
8478;SDS011;4276;49.354;6.804;2023-09-07T14:19:55;4.18;;;3.80;;
8478;SDS011;4276;49.354;6.804;2023-09-07T14:22:22;4.20;;;3.90;;
8478;SDS011;4276;49.354;6.804;2023-09-07T14:24:48;4.10;;;3.80;;
8478;SDS011;4276;49.354;6.804;2023-09-07T14:27:15;4.15;;;3.85;;
8478;SDS011;4276;49.354;6.804;2023-09-07T14:29:41;5.03;;;3.67;;
8478;SDS011;4276;49.354;6.804;2023-09-07T14:32:08;4.38;;;3.97;;
8478;SDS011;4276;49.354;6.804;2023-09-07T14:34:36;4.38;;;4.07;;
8478;SDS011;4276;49.354;6.804;2023-09-07T14:37:03;4.50;;;4.20;;
8478;SDS011;4276;49.354;6.804;2023-09-07T14:39:29;4.20;;;3.90;;
8478;SDS011;4276;49.354;6.804;2023-09-07T14:41:56;4.05;;;3.70;;
8478;SDS011;4276;49.354;6.804;2023-09-07T14:44:24;3.95;;;3.70;;
8478;SDS011;4276;49.354;6.804;2023-09-07T14:46:51;4.78;;;4.38;;
8478;SDS011;4276;49.354;6.804;2023-09-07T14:49:17;3.88;;;3.67;;
8478;SDS011;4276;49.354;6.804;2023-09-07T14:51:44;4.22;;;3.92;;
8478;SDS011;4276;49.354;6.804;2023-09-07T14:54:11;4.18;;;3.88;;
8478;SDS011;4276;49.354;6.804;2023-09-07T14:56:38;3.97;;;3.67;;
8478;SDS011;4276;49.354;6.804;2023-09-07T14:59:06;4.35;;;3.42;;
8478;SDS011;4276;49.354;6.804;2023-09-07T15:01:33;3.72;;;3.53;;
8478;SDS011;4276;49.354;6.804;2023-09-07T15:04:00;4.28;;;3.88;;
8478;SDS011;4276;49.354;6.804;2023-09-07T15:06:27;4.63;;;4.22;;
8478;SDS011;4276;49.354;6.804;2023-09-07T15:08:54;4.55;;;4.15;;
8478;SDS011;4276;49.354;6.804;2023-09-07T15:11:21;4.50;;;4.20;;
8478;SDS011;4276;49.354;6.804;2023-09-07T15:13:48;4.43;;;4.05;;
8478;SDS011;4276;49.354;6.804;2023-09-07T15:16:16;4.22;;;3.92;;
8478;SDS011;4276;49.354;6.804;2023-09-07T15:18:42;4.10;;;3.80;;